Time,TemperatureF,DewpointF,PressureIn,WindDirection,WindDirectionDegrees,WindSpeedMPH,WindSpeedGustMPH,Humidity,HourlyPrecipIn,Conditions,Clouds,dailyrainin,SolarRadiationWatts/m^2,SoftwareType,DateUTC
2013-08-26 00:03:00,80.2,70.0,30.04,SSE,166,0.9,2.0,71,0.00,,,0.00,0.0,meteobridge,2013-08-26 05:03:00,
2013-08-26 00:09:00,80.1,69.8,30.04,SE,146,0.9,2.0,71,0.00,,,0.00,0.0,meteobridge,2013-08-26 05:09:00,
2013-08-26 00:15:00,80.1,69.8,30.05,SE,146,0.0,0.9,71,0.00,,,0.00,0.0,meteobridge,2013-08-26 05:15:00,
2013-08-26 00:21:00,79.7,69.8,30.05,SE,146,0.9,0.9,72,0.00,,,0.00,0.0,meteobridge,2013-08-26 05:21:00,
2013-08-26 00:27:00,79.5,69.6,30.05,SSE,163,0.0,0.9,72,0.00,,,0.00,0.0,meteobridge,2013-08-26 05:27:00,
2013-08-26 00:33:00,79.3,69.4,30.05,SSE,163,0.0,2.0,72,0.00,,,0.00,0.0,meteobridge,2013-08-26 05:33:00,
2013-08-26 00:40:00,79.2,69.3,30.05,SSE,163,0.9,0.9,72,0.00,,,0.00,0.0,meteobridge,2013-08-26 05:40:00,
2013-08-26 00:46:00,79.0,69.6,30.05,South,171,0.0,0.9,73,0.00,,,0.00,0.0,meteobridge,2013-08-26 05:46:00,
2013-08-26 00:52:00,78.6,69.3,30.04,South,171,0.0,0.0,73,0.00,,,0.00,0.0,meteobridge,2013-08-26 05:52:00,
2013-08-26 00:59:00,78.4,69.4,30.04,South,171,0.0,0.0,74,0.00,,,0.00,0.0,meteobridge,2013-08-26 05:59:00,
2013-08-26 01:05:00,78.3,69.3,30.04,South,171,0.0,0.0,74,0.00,,,0.00,0.0,meteobridge,2013-08-26 06:05:00,
2013-08-26 01:11:00,78.1,69.1,30.04,South,171,0.0,0.0,74,0.00,,,0.00,0.0,meteobridge,2013-08-26 06:11:00,
2013-08-26 01:18:00,77.7,68.7,30.04,South,171,0.0,0.0,74,0.00,,,0.00,0.0,meteobridge,2013-08-26 06:18:00,
2013-08-26 01:24:00,77.4,68.9,30.05,South,171,0.0,0.0,75,0.00,,,0.00,0.0,meteobridge,2013-08-26 06:24:00,
2013-08-26 01:30:00,76.8,68.7,30.05,South,171,0.0,0.0,76,0.00,,,0.00,0.0,meteobridge,2013-08-26 06:30:00,
2013-08-26 01:37:00,76.5,68.7,30.05,South,171,0.0,0.0,77,0.00,,,0.00,0.0,meteobridge,2013-08-26 06:37:00,
2013-08-26 01:43:00,75.9,68.5,30.04,South,171,0.0,0.0,78,0.00,,,0.00,0.0,meteobridge,2013-08-26 06:43:00,
2013-08-26 01:49:00,75.6,68.5,30.04,South,171,0.0,0.0,79,0.00,,,0.00,0.0,meteobridge,2013-08-26 06:49:00,
2013-08-26 01:55:00,75.6,69.3,30.04,South,171,0.0,2.9,81,0.00,,,0.00,0.0,meteobridge,2013-08-26 06:55:00,
2013-08-26 02:02:00,75.9,69.6,30.04,South,171,0.0,2.0,81,0.00,,,0.00,0.0,meteobridge,2013-08-26 07:02:00,
2013-08-26 02:08:00,76.3,69.6,30.04,ESE,123,2.0,4.0,80,0.00,,,0.00,0.0,meteobridge,2013-08-26 07:08:00,
2013-08-26 02:14:00,76.8,69.8,30.04,ESE,111,2.0,4.0,79,0.00,,,0.00,0.0,meteobridge,2013-08-26 07:14:00,
2013-08-26 02:20:00,77.2,70.2,30.04,SSE,149,2.0,4.0,79,0.00,,,0.00,0.0,meteobridge,2013-08-26 07:20:00,
2013-08-26 02:26:00,77.4,70.3,30.04,ESE,123,2.0,4.9,79,0.00,,,0.00,0.0,meteobridge,2013-08-26 07:26:00,
2013-08-26 02:32:00,77.4,70.3,30.04,SSW,194,2.9,6.0,79,0.00,,,0.00,0.0,meteobridge,2013-08-26 07:32:00,
2013-08-26 02:38:00,77.4,70.3,30.04,SE,134,2.0,4.9,79,0.00,,,0.00,0.0,meteobridge,2013-08-26 07:38:00,
2013-08-26 02:44:00,77.2,70.2,30.04,SSE,153,0.0,0.9,79,0.00,,,0.00,0.0,meteobridge,2013-08-26 07:44:00,
2013-08-26 02:51:00,77.0,70.0,30.04,SSE,153,0.0,0.0,79,0.00,,,0.00,0.0,meteobridge,2013-08-26 07:51:00,
2013-08-26 02:57:00,76.8,70.2,30.04,SSE,153,0.0,0.9,80,0.00,,,0.00,0.0,meteobridge,2013-08-26 07:57:00,
2013-08-26 03:03:00,76.5,70.2,30.04,SSE,153,0.0,0.9,81,0.00,,,0.00,0.0,meteobridge,2013-08-26 08:03:00,
2013-08-26 03:10:00,76.3,70.0,30.04,SSE,153,0.0,0.9,81,0.00,,,0.00,0.0,meteobridge,2013-08-26 08:10:00,
2013-08-26 03:16:00,75.9,69.6,30.04,SSE,153,0.0,0.0,81,0.00,,,0.00,0.0,meteobridge,2013-08-26 08:16:00,
2013-08-26 03:22:00,75.7,69.8,30.04,SSE,153,0.0,0.0,82,0.00,,,0.00,0.0,meteobridge,2013-08-26 08:22:00,
2013-08-26 03:29:00,75.6,69.6,30.04,SSE,153,0.0,0.0,82,0.00,,,0.00,0.0,meteobridge,2013-08-26 08:29:00,
2013-08-26 03:35:00,75.4,69.4,30.04,SSE,153,0.0,0.0,82,0.00,,,0.00,0.0,meteobridge,2013-08-26 08:35:00,
2013-08-26 03:41:00,74.8,69.3,30.04,SE,134,0.0,2.0,83,0.00,,,0.00,0.0,meteobridge,2013-08-26 08:41:00,
2013-08-26 03:47:00,74.8,69.6,30.04,ESE,104,0.0,2.0,84,0.00,,,0.00,0.0,meteobridge,2013-08-26 08:47:00,
2013-08-26 03:53:00,75.0,69.8,30.04,ESE,113,0.9,2.9,84,0.00,,,0.00,0.0,meteobridge,2013-08-26 08:53:00,
2013-08-26 04:00:00,75.2,69.6,30.04,ESE,120,0.9,0.9,83,0.00,,,0.00,0.0,meteobridge,2013-08-26 09:00:00,
2013-08-26 04:06:00,75.2,69.6,30.04,ESE,120,0.9,0.9,83,0.00,,,0.00,0.0,meteobridge,2013-08-26 09:06:00,
2013-08-26 04:12:00,75.2,69.6,30.04,ESE,120,0.0,0.0,83,0.00,,,0.00,0.0,meteobridge,2013-08-26 09:12:00,
2013-08-26 04:19:00,75.2,69.6,30.04,ESE,120,0.0,0.9,83,0.00,,,0.00,0.0,meteobridge,2013-08-26 09:19:00,
2013-08-26 04:25:00,75.2,70.0,30.04,ESE,105,0.0,0.9,84,0.00,,,0.00,0.0,meteobridge,2013-08-26 09:25:00,
2013-08-26 04:31:00,75.0,69.8,30.04,ESE,116,2.9,4.0,84,0.00,,,0.00,0.0,meteobridge,2013-08-26 09:31:00,
2013-08-26 04:37:00,75.0,69.8,30.04,ESE,116,0.9,0.9,84,0.00,,,0.00,0.0,meteobridge,2013-08-26 09:37:00,
2013-08-26 04:43:00,75.2,70.0,30.04,ESE,115,2.9,2.9,84,0.00,,,0.00,0.0,meteobridge,2013-08-26 09:43:00,
2013-08-26 04:49:00,75.4,70.2,30.04,ESE,115,0.9,2.0,84,0.00,,,0.00,0.0,meteobridge,2013-08-26 09:49:00,
2013-08-26 04:56:00,75.4,70.2,30.04,ESE,115,0.0,0.9,84,0.00,,,0.00,0.0,meteobridge,2013-08-26 09:56:00,
2013-08-26 05:02:00,75.2,70.0,30.04,ESE,108,0.9,2.9,84,0.00,,,0.00,0.0,meteobridge,2013-08-26 10:02:00,
2013-08-26 05:09:00,75.0,69.8,30.04,ESE,108,0.9,2.0,84,0.00,,,0.00,0.0,meteobridge,2013-08-26 10:09:00,
2013-08-26 05:15:00,75.0,69.8,30.04,ENE,74,0.0,0.9,84,0.00,,,0.00,0.0,meteobridge,2013-08-26 10:15:00,
2013-08-26 05:21:00,74.8,70.0,30.04,East,93,0.0,2.0,85,0.00,,,0.00,0.0,meteobridge,2013-08-26 10:21:00,
2013-08-26 05:27:00,74.8,70.0,30.04,East,101,0.9,2.9,85,0.00,,,0.00,0.0,meteobridge,2013-08-26 10:27:00,
2013-08-26 05:34:00,74.8,70.0,30.04,East,98,0.9,2.9,85,0.00,,,0.00,0.0,meteobridge,2013-08-26 10:34:00,
2013-08-26 05:40:00,74.8,70.0,30.05,ESE,119,0.9,2.9,85,0.00,,,0.00,0.0,meteobridge,2013-08-26 10:40:00,
2013-08-26 05:46:00,74.8,70.0,30.05,ESE,108,2.0,2.0,85,0.00,,,0.00,0.0,meteobridge,2013-08-26 10:46:00,
2013-08-26 05:53:00,74.8,70.0,30.05,ESE,123,2.0,2.0,85,0.00,,,0.00,0.0,meteobridge,2013-08-26 10:53:00,
2013-08-26 05:59:00,75.0,70.2,30.05,SE,132,2.0,2.9,85,0.00,,,0.00,0.0,meteobridge,2013-08-26 10:59:00,
2013-08-26 06:05:00,75.0,70.2,30.05,SSE,153,2.0,4.9,85,0.00,,,0.00,0.0,meteobridge,2013-08-26 11:05:00,
2013-08-26 06:11:00,75.4,70.5,30.05,East,99,2.0,6.0,85,0.00,,,0.00,0.0,meteobridge,2013-08-26 11:11:00,
2013-08-26 06:17:00,75.4,70.5,30.05,SE,125,2.0,4.0,85,0.00,,,0.00,0.0,meteobridge,2013-08-26 11:17:00,
2013-08-26 06:23:00,75.4,70.2,30.05,ESE,112,0.9,4.9,84,0.00,,,0.00,0.0,meteobridge,2013-08-26 11:23:00,
2013-08-26 06:29:00,75.2,70.0,30.05,ESE,114,0.0,4.0,84,0.00,,,0.00,0.0,meteobridge,2013-08-26 11:29:00,
2013-08-26 06:36:00,75.2,70.3,30.06,SE,127,0.9,2.0,85,0.00,,,0.00,0.0,meteobridge,2013-08-26 11:36:00,
2013-08-26 06:42:00,75.0,70.2,30.06,ESE,116,2.0,2.9,85,0.00,,,0.00,0.0,meteobridge,2013-08-26 11:42:00,
2013-08-26 06:48:00,74.8,70.3,30.06,SE,126,2.0,2.9,86,0.00,,,0.00,0.0,meteobridge,2013-08-26 11:48:00,
2013-08-26 06:54:00,74.7,70.2,30.06,SE,128,0.9,0.9,86,0.00,,,0.00,0.0,meteobridge,2013-08-26 11:54:00,
2013-08-26 07:00:00,74.5,70.3,30.06,SE,130,0.9,4.9,87,0.00,,,0.00,0.0,meteobridge,2013-08-26 12:00:00,
2013-08-26 07:06:00,74.5,70.3,30.06,ESE,111,0.0,4.9,87,0.00,,,0.00,7.0,meteobridge,2013-08-26 12:06:00,
2013-08-26 07:12:00,74.5,70.3,30.06,SE,134,0.9,2.9,87,0.00,,,0.00,9.0,meteobridge,2013-08-26 12:12:00,
2013-08-26 07:18:00,74.5,70.3,30.06,ESE,106,0.0,2.0,87,0.00,,,0.00,12.0,meteobridge,2013-08-26 12:18:00,
2013-08-26 07:24:00,74.5,70.3,30.06,ESE,117,0.0,0.9,87,0.00,,,0.00,19.0,meteobridge,2013-08-26 12:24:00,
2013-08-26 07:31:00,74.5,70.3,30.06,ESE,107,2.9,4.9,87,0.00,,,0.00,23.0,meteobridge,2013-08-26 12:31:00,
2013-08-26 07:37:00,74.5,70.7,30.06,SE,129,2.0,4.9,88,0.00,,,0.00,26.0,meteobridge,2013-08-26 12:37:00,
2013-08-26 07:43:00,74.5,70.7,30.07,ESE,104,0.0,0.9,88,0.00,,,0.00,28.0,meteobridge,2013-08-26 12:43:00,
2013-08-26 07:49:00,74.5,70.7,30.07,ESE,117,2.9,2.9,88,0.00,,,0.00,60.0,meteobridge,2013-08-26 12:49:00,
2013-08-26 07:55:00,74.7,70.9,30.07,SE,126,0.9,2.0,88,0.00,,,0.00,58.0,meteobridge,2013-08-26 12:55:00,
2013-08-26 08:01:00,74.8,71.1,30.07,ESE,112,2.9,4.0,88,0.00,,,0.00,62.0,meteobridge,2013-08-26 13:01:00,
2013-08-26 08:07:00,75.2,71.1,30.07,ESE,121,4.9,4.9,87,0.00,,,0.00,76.0,meteobridge,2013-08-26 13:07:00,
2013-08-26 08:14:00,75.6,71.4,30.07,SE,128,0.0,2.0,87,0.00,,,0.00,132.0,meteobridge,2013-08-26 13:14:00,
2013-08-26 08:20:00,76.6,71.8,30.07,ESE,111,2.9,2.9,85,0.00,,,0.00,81.0,meteobridge,2013-08-26 13:20:00,
2013-08-26 08:26:00,76.6,71.4,30.07,SE,126,0.0,4.9,84,0.00,,,0.00,72.0,meteobridge,2013-08-26 13:26:00,
2013-08-26 08:32:00,76.3,71.4,30.07,SE,134,2.0,6.9,85,0.00,,,0.00,88.0,meteobridge,2013-08-26 13:32:00,
2013-08-26 08:38:00,75.9,71.1,30.07,SE,143,0.0,6.0,85,0.00,,,0.00,67.0,meteobridge,2013-08-26 13:38:00,
2013-08-26 08:44:00,75.9,71.1,30.08,ESE,120,4.0,6.0,85,0.00,,,0.00,65.0,meteobridge,2013-08-26 13:44:00,
2013-08-26 08:50:00,75.9,71.1,30.08,ESE,123,0.9,2.9,85,0.00,,,0.00,113.0,meteobridge,2013-08-26 13:50:00,
2013-08-26 08:56:00,76.3,71.4,30.08,SE,134,0.9,2.9,85,0.00,,,0.00,178.0,meteobridge,2013-08-26 13:56:00,
2013-08-26 09:03:00,76.5,71.2,30.08,ESE,117,4.9,4.9,84,0.00,,,0.00,207.0,meteobridge,2013-08-26 14:03:00,
2013-08-26 09:09:00,77.0,71.1,30.08,SE,131,2.9,8.9,82,0.00,,,0.00,264.0,meteobridge,2013-08-26 14:09:00,
2013-08-26 09:15:00,77.5,71.6,30.08,ESE,106,2.9,6.0,82,0.00,,,0.00,522.0,meteobridge,2013-08-26 14:15:00,
2013-08-26 09:21:00,77.9,71.6,30.08,ESE,118,4.9,6.9,81,0.00,,,0.00,188.0,meteobridge,2013-08-26 14:21:00,
2013-08-26 09:27:00,77.7,71.4,30.09,ESE,122,2.9,4.9,81,0.00,,,0.00,190.0,meteobridge,2013-08-26 14:27:00,
2013-08-26 09:33:00,77.7,71.1,30.09,ESE,119,2.0,4.9,80,0.00,,,0.00,153.0,meteobridge,2013-08-26 14:33:00,
2013-08-26 09:39:00,77.5,71.2,30.09,SSE,148,0.9,4.9,81,0.00,,,0.00,169.0,meteobridge,2013-08-26 14:39:00,
2013-08-26 09:45:00,77.5,70.9,30.09,ESE,107,0.9,4.9,80,0.00,,,0.00,244.0,meteobridge,2013-08-26 14:45:00,
2013-08-26 09:51:00,77.9,70.9,30.09,SSE,153,0.9,4.9,79,0.00,,,0.00,121.0,meteobridge,2013-08-26 14:51:00,
2013-08-26 09:57:00,77.5,70.9,30.09,SE,139,4.0,4.9,80,0.00,,,0.00,132.0,meteobridge,2013-08-26 14:57:00,
2013-08-26 10:04:00,77.4,70.7,30.09,ESE,119,4.0,4.9,80,0.00,,,0.00,123.0,meteobridge,2013-08-26 15:04:00,
2013-08-26 10:10:00,77.4,70.7,30.10,South,173,0.9,4.9,80,0.00,,,0.00,76.0,meteobridge,2013-08-26 15:10:00,
2013-08-26 10:16:00,77.4,71.1,30.09,NE,51,0.9,4.9,81,0.00,,,0.00,176.0,meteobridge,2013-08-26 15:16:00,
2013-08-26 10:22:00,77.5,71.2,30.09,SE,126,2.0,6.0,81,0.00,,,0.00,318.0,meteobridge,2013-08-26 15:22:00,
2013-08-26 10:28:00,78.1,71.1,30.10,ESE,107,4.0,6.9,79,0.00,,,0.00,178.0,meteobridge,2013-08-26 15:28:00,
2013-08-26 10:34:00,77.7,70.7,30.10,ESE,103,2.0,4.0,79,0.00,,,0.00,109.0,meteobridge,2013-08-26 15:34:00,
2013-08-26 10:40:00,77.5,70.9,30.09,East,86,2.9,8.1,80,0.00,,,0.00,197.0,meteobridge,2013-08-26 15:40:00,
2013-08-26 10:46:00,77.7,70.7,30.10,SE,141,8.9,8.9,79,0.00,,,0.00,267.0,meteobridge,2013-08-26 15:46:00,
2013-08-26 10:52:00,78.8,71.1,30.10,ESE,115,2.0,6.9,77,0.00,,,0.00,308.0,meteobridge,2013-08-26 15:52:00,
2013-08-26 10:58:00,79.3,71.1,30.10,SE,144,2.0,6.9,76,0.00,,,0.00,285.0,meteobridge,2013-08-26 15:58:00,
2013-08-26 11:05:00,79.9,70.9,30.10,East,90,2.9,4.9,74,0.00,,,0.00,313.0,meteobridge,2013-08-26 16:05:00,
2013-08-26 11:11:00,80.2,71.2,30.10,NE,53,0.9,6.9,74,0.00,,,0.00,230.0,meteobridge,2013-08-26 16:11:00,
2013-08-26 11:17:00,80.1,70.7,30.10,ESE,107,2.0,6.9,73,0.00,,,0.00,172.0,meteobridge,2013-08-26 16:17:00,
2013-08-26 11:23:00,79.3,70.3,30.10,ENE,66,0.9,6.0,74,0.00,,,0.00,218.0,meteobridge,2013-08-26 16:23:00,
2013-08-26 11:29:00,79.5,70.9,30.10,SE,131,2.9,4.9,75,0.00,,,0.00,343.0,meteobridge,2013-08-26 16:29:00,
2013-08-26 11:35:00,80.4,70.9,30.10,ESE,121,0.0,8.1,73,0.00,,,0.00,775.0,meteobridge,2013-08-26 16:35:00,
2013-08-26 11:41:00,81.7,71.4,30.10,East,91,0.0,2.9,71,0.00,,,0.00,236.0,meteobridge,2013-08-26 16:41:00,
2013-08-26 11:47:00,81.5,71.2,30.09,SE,134,2.9,2.9,71,0.00,,,0.00,350.0,meteobridge,2013-08-26 16:47:00,
2013-08-26 11:53:00,81.5,71.2,30.09,South,174,0.0,2.9,71,0.00,,,0.00,364.0,meteobridge,2013-08-26 16:53:00,
2013-08-26 12:00:00,82.0,70.3,30.09,SE,126,4.9,4.9,68,0.00,,,0.00,329.0,meteobridge,2013-08-26 17:00:00,
2013-08-26 12:06:00,82.0,70.3,30.09,ESE,107,2.9,2.9,68,0.00,,,0.00,269.0,meteobridge,2013-08-26 17:06:00,
2013-08-26 12:12:00,82.0,70.3,30.09,SSE,165,0.9,2.9,68,0.00,,,0.00,318.0,meteobridge,2013-08-26 17:12:00,
2013-08-26 12:18:00,82.2,70.2,30.09,SE,135,2.0,4.9,67,0.00,,,0.00,283.0,meteobridge,2013-08-26 17:18:00,
2013-08-26 12:24:00,82.2,70.2,30.08,ESE,113,0.0,2.0,67,0.00,,,0.00,355.0,meteobridge,2013-08-26 17:24:00,
2013-08-26 12:30:00,82.9,70.3,30.07,ESE,111,2.0,4.9,66,0.00,,,0.00,550.0,meteobridge,2013-08-26 17:30:00,
2013-08-26 12:36:00,84.0,70.5,30.07,ESE,119,0.0,4.0,64,0.00,,,0.00,1179.0,meteobridge,2013-08-26 17:36:00,
2013-08-26 12:42:00,84.7,70.3,30.06,SE,125,4.9,6.9,62,0.00,,,0.00,466.0,meteobridge,2013-08-26 17:42:00,
2013-08-26 12:48:00,85.5,70.5,30.06,SSE,155,4.0,4.9,61,0.00,,,0.00,1009.0,meteobridge,2013-08-26 17:48:00,
2013-08-26 12:54:00,86.4,70.3,30.06,SSE,163,0.9,4.9,59,0.00,,,0.00,1092.0,meteobridge,2013-08-26 17:54:00,
2013-08-26 13:01:00,86.2,70.2,30.06,NE,51,0.9,2.9,59,0.00,,,0.00,318.0,meteobridge,2013-08-26 18:01:00,
2013-08-26 13:07:00,86.0,70.0,30.06,SE,133,4.9,6.9,59,0.00,,,0.00,262.0,meteobridge,2013-08-26 18:07:00,
2013-08-26 13:13:00,86.4,69.8,30.05,ENE,70,4.9,4.9,58,0.00,,,0.00,308.0,meteobridge,2013-08-26 18:13:00,
2013-08-26 13:19:00,85.8,69.3,30.05,ESE,123,0.9,4.0,58,0.00,,,0.00,352.0,meteobridge,2013-08-26 18:19:00,
2013-08-26 13:25:00,85.6,69.6,30.05,ESE,116,0.0,6.0,59,0.00,,,0.00,311.0,meteobridge,2013-08-26 18:25:00,
2013-08-26 13:31:00,86.0,70.0,30.04,SE,126,4.9,8.1,59,0.00,,,0.00,329.0,meteobridge,2013-08-26 18:31:00,
2013-08-26 13:37:00,86.5,69.4,30.04,East,99,2.0,6.9,57,0.00,,,0.00,387.0,meteobridge,2013-08-26 18:37:00,
2013-08-26 13:43:00,86.7,69.1,30.04,East,86,2.0,6.0,56,0.00,,,0.00,469.0,meteobridge,2013-08-26 18:43:00,
2013-08-26 13:49:00,87.8,69.6,30.04,SE,135,2.9,4.0,55,0.00,,,0.00,418.0,meteobridge,2013-08-26 18:49:00,
2013-08-26 13:55:00,88.3,69.1,30.03,SE,128,2.9,8.9,53,0.00,,,0.00,1183.0,meteobridge,2013-08-26 18:55:00,
2013-08-26 14:02:00,89.1,68.5,30.03,SE,142,0.9,6.9,51,0.00,,,0.00,1223.0,meteobridge,2013-08-26 19:02:00,
2013-08-26 14:08:00,89.1,68.5,30.03,ESE,115,4.0,6.9,51,0.00,,,0.00,397.0,meteobridge,2013-08-26 19:08:00,
2013-08-26 14:14:00,88.9,68.4,30.03,South,173,10.1,10.1,51,0.00,,,0.00,443.0,meteobridge,2013-08-26 19:14:00,
2013-08-26 14:20:00,89.4,68.9,30.03,ENE,74,4.0,6.9,51,0.00,,,0.00,1102.0,meteobridge,2013-08-26 19:20:00,
2013-08-26 14:26:00,89.2,68.7,30.03,SE,126,2.0,6.9,51,0.00,,,0.00,545.0,meteobridge,2013-08-26 19:26:00,
2013-08-26 14:33:00,88.9,68.9,30.02,ESE,103,2.9,4.0,52,0.00,,,0.00,438.0,meteobridge,2013-08-26 19:33:00,
2013-08-26 14:39:00,89.8,68.7,30.02,ENE,78,4.9,8.1,50,0.00,,,0.00,1065.0,meteobridge,2013-08-26 19:39:00,
2013-08-26 14:45:00,89.1,68.0,30.02,ESE,113,4.9,8.1,50,0.00,,,0.00,301.0,meteobridge,2013-08-26 19:45:00,
2013-08-26 14:51:00,90.0,68.9,30.01,SSE,150,6.0,8.1,50,0.00,,,0.00,1116.0,meteobridge,2013-08-26 19:51:00,
2013-08-26 14:57:00,89.6,68.5,30.01,ESE,118,2.0,2.9,50,0.00,,,0.00,334.0,meteobridge,2013-08-26 19:57:00,
2013-08-26 15:03:00,89.6,68.5,30.01,ESE,119,2.0,4.9,50,0.00,,,0.00,912.0,meteobridge,2013-08-26 20:03:00,
2013-08-26 15:09:00,90.7,69.4,30.00,SE,131,4.9,4.9,50,0.00,,,0.00,1021.0,meteobridge,2013-08-26 20:09:00,
2013-08-26 15:15:00,91.2,68.2,30.00,SE,131,4.9,8.1,47,0.00,,,0.00,534.0,meteobridge,2013-08-26 20:15:00,
2013-08-26 15:21:00,90.1,67.8,30.00,SE,140,2.0,8.1,48,0.00,,,0.00,195.0,meteobridge,2013-08-26 20:21:00,
2013-08-26 15:27:00,89.2,68.2,30.00,ESE,123,4.0,8.1,50,0.00,,,0.00,925.0,meteobridge,2013-08-26 20:27:00,
2013-08-26 15:33:00,90.0,67.6,29.99,South,178,4.0,8.9,48,0.00,,,0.00,1025.0,meteobridge,2013-08-26 20:33:00,
2013-08-26 15:39:00,90.1,67.8,29.99,ESE,116,4.0,12.1,48,0.00,,,0.00,325.0,meteobridge,2013-08-26 20:39:00,
2013-08-26 15:46:00,89.8,68.0,29.99,ESE,107,2.9,8.1,49,0.00,,,0.00,399.0,meteobridge,2013-08-26 20:46:00,
2013-08-26 15:52:00,89.6,67.8,29.99,SE,126,4.0,8.9,49,0.00,,,0.00,308.0,meteobridge,2013-08-26 20:52:00,
2013-08-26 15:58:00,89.6,67.8,29.99,SE,128,4.0,8.1,49,0.00,,,0.00,376.0,meteobridge,2013-08-26 20:58:00,
2013-08-26 16:04:00,89.4,67.8,29.99,SE,134,2.0,11.0,49,0.00,,,0.00,408.0,meteobridge,2013-08-26 21:04:00,
2013-08-26 16:10:00,89.4,68.4,29.99,ESE,121,4.0,8.1,50,0.00,,,0.00,441.0,meteobridge,2013-08-26 21:10:00,
2013-08-26 16:16:00,89.4,68.4,29.99,ESE,105,2.9,10.1,50,0.00,,,0.00,330.0,meteobridge,2013-08-26 21:16:00,
2013-08-26 16:22:00,89.1,68.0,29.98,SE,126,0.9,8.1,50,0.00,,,0.00,341.0,meteobridge,2013-08-26 21:22:00,
2013-08-26 16:28:00,89.2,68.2,29.98,SE,138,4.9,10.1,50,0.00,,,0.00,397.0,meteobridge,2013-08-26 21:28:00,
2013-08-26 16:34:00,89.6,68.5,29.98,SE,140,10.1,10.1,50,0.00,,,0.00,396.0,meteobridge,2013-08-26 21:34:00,
2013-08-26 16:40:00,89.2,68.2,29.98,SE,139,4.9,6.9,50,0.00,,,0.00,348.0,meteobridge,2013-08-26 21:40:00,
2013-08-26 16:46:00,89.2,68.7,29.98,SSW,212,4.0,6.9,51,0.00,,,0.00,401.0,meteobridge,2013-08-26 21:46:00,
2013-08-26 16:52:00,89.1,68.5,29.98,SE,136,2.9,8.9,51,0.00,,,0.00,369.0,meteobridge,2013-08-26 21:52:00,
2013-08-26 16:59:00,89.1,68.5,29.98,SE,126,4.9,11.0,51,0.00,,,0.00,322.0,meteobridge,2013-08-26 21:59:00,
2013-08-26 17:05:00,88.7,68.2,29.98,ESE,104,2.9,11.0,51,0.00,,,0.00,299.0,meteobridge,2013-08-26 22:05:00,
2013-08-26 17:11:00,88.2,68.9,29.98,SE,135,2.9,6.9,53,0.00,,,0.00,253.0,meteobridge,2013-08-26 22:11:00,
2013-08-26 17:17:00,88.5,68.7,29.99,SSE,148,8.1,10.1,52,0.00,,,0.00,598.0,meteobridge,2013-08-26 22:17:00,
2013-08-26 17:23:00,88.3,69.6,29.98,SE,126,4.9,8.9,54,0.00,,,0.00,520.0,meteobridge,2013-08-26 22:23:00,
2013-08-26 17:29:00,88.3,70.2,29.99,SE,140,6.0,10.1,55,0.00,,,0.00,487.0,meteobridge,2013-08-26 22:29:00,
2013-08-26 17:35:00,88.3,69.6,29.99,SSE,159,4.0,8.9,54,0.00,,,0.00,471.0,meteobridge,2013-08-26 22:35:00,
2013-08-26 17:41:00,88.7,70.5,29.99,ESE,122,6.9,6.9,55,0.00,,,0.00,487.0,meteobridge,2013-08-26 22:41:00,
2013-08-26 17:47:00,88.0,70.3,29.99,SE,140,6.0,8.9,56,0.00,,,0.00,141.0,meteobridge,2013-08-26 22:47:00,
2013-08-26 17:53:00,87.4,69.8,29.99,SSE,166,6.9,8.1,56,0.00,,,0.00,415.0,meteobridge,2013-08-26 22:53:00,
2013-08-26 17:59:00,87.3,70.2,29.99,SSE,156,4.9,8.9,57,0.00,,,0.00,408.0,meteobridge,2013-08-26 22:59:00,
2013-08-26 18:05:00,87.3,69.6,29.99,ESE,114,6.9,6.9,56,0.00,,,0.00,394.0,meteobridge,2013-08-26 23:05:00,
2013-08-26 18:12:00,86.7,69.6,29.99,South,172,2.9,11.0,57,0.00,,,0.00,195.0,meteobridge,2013-08-26 23:12:00,
2013-08-26 18:18:00,86.2,69.6,29.99,SE,137,6.9,8.1,58,0.00,,,0.00,255.0,meteobridge,2013-08-26 23:18:00,
2013-08-26 18:24:00,86.0,68.9,30.00,SSE,153,6.0,8.1,57,0.00,,,0.00,193.0,meteobridge,2013-08-26 23:24:00,
2013-08-26 18:30:00,85.5,69.1,30.00,SSE,153,8.1,8.1,58,0.00,,,0.00,244.0,meteobridge,2013-08-26 23:30:00,
2013-08-26 18:36:00,85.6,69.1,29.99,SE,146,2.9,4.9,58,0.00,,,0.00,243.0,meteobridge,2013-08-26 23:36:00,
2013-08-26 18:42:00,85.6,68.7,29.99,ESE,123,2.0,8.9,57,0.00,,,0.00,130.0,meteobridge,2013-08-26 23:42:00,
2013-08-26 18:48:00,84.9,68.9,29.99,ESE,123,2.0,8.9,59,0.00,,,0.00,77.0,meteobridge,2013-08-26 23:48:00,
2013-08-26 18:54:00,84.6,69.1,29.99,SE,138,13.0,13.0,60,0.00,,,0.00,105.0,meteobridge,2013-08-26 23:54:00,
2013-08-26 19:00:00,84.2,69.3,29.99,SE,130,4.9,8.1,61,0.00,,,0.00,146.0,meteobridge,2013-08-27 00:00:00,
2013-08-26 19:06:00,84.0,69.6,30.00,ESE,121,6.9,6.9,62,0.00,,,0.00,151.0,meteobridge,2013-08-27 00:06:00,
2013-08-26 19:12:00,83.7,70.2,30.00,SE,142,2.9,8.1,64,0.00,,,0.00,54.0,meteobridge,2013-08-27 00:12:00,
2013-08-26 19:18:00,82.9,70.9,30.00,SSE,148,2.0,8.1,67,0.00,,,0.00,46.0,meteobridge,2013-08-27 00:18:00,
2013-08-26 19:24:00,82.0,70.0,30.00,South,189,6.9,11.0,67,0.00,,,0.00,37.0,meteobridge,2013-08-27 00:24:00,
2013-08-26 19:30:00,81.1,69.6,30.01,SE,135,2.9,8.1,68,0.00,,,0.00,30.0,meteobridge,2013-08-27 00:30:00,
2013-08-26 19:37:00,80.8,70.2,30.01,SSE,150,6.0,12.1,70,0.00,,,0.00,25.0,meteobridge,2013-08-27 00:37:00,
2013-08-26 19:43:00,80.2,70.3,30.01,SE,141,2.0,8.1,72,0.00,,,0.00,18.0,meteobridge,2013-08-27 00:43:00,
2013-08-26 19:49:00,79.9,70.5,30.01,South,174,2.9,8.9,73,0.00,,,0.00,12.0,meteobridge,2013-08-27 00:49:00,
2013-08-26 19:55:00,79.3,70.3,30.01,SSE,158,2.9,6.9,74,0.00,,,0.00,7.0,meteobridge,2013-08-27 00:55:00,
2013-08-26 20:01:00,79.0,70.3,30.01,SSE,150,2.0,4.9,75,0.00,,,0.00,0.0,meteobridge,2013-08-27 01:01:00,
2013-08-26 20:07:00,78.6,70.0,30.01,ESE,121,2.9,8.9,75,0.00,,,0.00,0.0,meteobridge,2013-08-27 01:07:00,
2013-08-26 20:13:00,78.3,70.0,30.02,ESE,119,4.0,10.1,76,0.00,,,0.00,0.0,meteobridge,2013-08-27 01:13:00,
2013-08-26 20:19:00,77.7,70.0,30.02,SSE,148,2.9,10.1,77,0.00,,,0.00,0.0,meteobridge,2013-08-27 01:19:00,
2013-08-26 20:25:00,77.5,70.2,30.02,ESE,115,4.9,8.1,78,0.00,,,0.00,0.0,meteobridge,2013-08-27 01:25:00,
2013-08-26 20:31:00,77.5,70.5,30.02,SE,127,6.9,8.1,79,0.00,,,0.00,0.0,meteobridge,2013-08-27 01:31:00,
2013-08-26 20:37:00,77.4,70.3,30.02,SW,215,2.9,6.9,79,0.00,,,0.00,0.0,meteobridge,2013-08-27 01:37:00,
2013-08-26 20:43:00,77.4,70.3,30.02,SE,136,2.0,6.9,79,0.00,,,0.00,0.0,meteobridge,2013-08-27 01:43:00,
2013-08-26 20:50:00,77.2,70.2,30.02,SE,142,6.0,6.9,79,0.00,,,0.00,0.0,meteobridge,2013-08-27 01:50:00,
2013-08-26 20:56:00,77.0,70.3,30.03,ESE,120,4.0,6.0,80,0.00,,,0.00,0.0,meteobridge,2013-08-27 01:56:00,
2013-08-26 21:02:00,76.6,70.0,30.03,SSE,165,0.9,6.9,80,0.00,,,0.00,0.0,meteobridge,2013-08-27 02:02:00,
2013-08-26 21:08:00,76.5,70.2,30.03,South,180,2.0,6.0,81,0.00,,,0.00,0.0,meteobridge,2013-08-27 02:08:00,
2013-08-26 21:14:00,76.3,70.3,30.03,South,189,4.0,8.1,82,0.00,,,0.00,0.0,meteobridge,2013-08-27 02:14:00,
2013-08-26 21:20:00,75.9,70.0,30.03,SE,138,0.9,4.9,82,0.00,,,0.00,0.0,meteobridge,2013-08-27 02:20:00,
2013-08-26 21:26:00,75.9,70.0,30.03,ESE,120,2.9,4.0,82,0.00,,,0.00,0.0,meteobridge,2013-08-27 02:26:00,
2013-08-26 21:32:00,75.9,70.3,30.03,SW,234,0.0,4.9,83,0.00,,,0.00,0.0,meteobridge,2013-08-27 02:32:00,
2013-08-26 21:38:00,75.9,70.3,30.03,South,178,2.9,4.9,83,0.00,,,0.00,0.0,meteobridge,2013-08-27 02:38:00,
2013-08-26 21:45:00,75.9,70.3,30.03,SW,222,0.0,2.0,83,0.00,,,0.00,0.0,meteobridge,2013-08-27 02:45:00,
2013-08-26 21:51:00,75.9,70.3,30.02,SSW,200,0.0,0.9,83,0.00,,,0.00,0.0,meteobridge,2013-08-27 02:51:00,
2013-08-26 21:57:00,75.9,70.7,30.02,SSW,200,0.0,0.0,84,0.00,,,0.00,0.0,meteobridge,2013-08-27 02:57:00,
2013-08-26 22:04:00,75.9,70.7,30.01,SSW,200,0.0,0.0,84,0.00,,,0.00,0.0,meteobridge,2013-08-27 03:04:00,
2013-08-26 22:10:00,75.7,70.5,30.01,SSW,200,0.9,0.9,84,0.00,,,0.00,0.0,meteobridge,2013-08-27 03:10:00,
2013-08-26 22:17:00,75.6,70.3,30.01,SSW,200,0.9,0.9,84,0.00,,,0.00,0.0,meteobridge,2013-08-27 03:17:00,
2013-08-26 22:23:00,75.4,70.5,30.01,SE,146,0.0,4.0,85,0.00,,,0.00,0.0,meteobridge,2013-08-27 03:23:00,
2013-08-26 22:29:00,75.4,70.5,30.02,SE,146,0.9,2.0,85,0.00,,,0.00,0.0,meteobridge,2013-08-27 03:29:00,
2013-08-26 22:36:00,75.2,70.3,30.03,SE,146,0.0,2.0,85,0.00,,,0.00,0.0,meteobridge,2013-08-27 03:36:00,
2013-08-26 22:42:00,75.0,69.8,30.03,SE,136,0.0,0.9,84,0.00,,,0.00,0.0,meteobridge,2013-08-27 03:42:00,
2013-08-26 22:48:00,74.8,69.6,30.03,South,178,0.0,2.0,84,0.00,,,0.00,0.0,meteobridge,2013-08-27 03:48:00,
2013-08-26 22:54:00,74.7,69.1,30.03,SE,135,0.0,2.0,83,0.00,,,0.00,0.0,meteobridge,2013-08-27 03:54:00,
2013-08-26 23:00:00,74.7,69.1,30.03,SW,223,0.0,2.9,83,0.00,,,0.00,0.0,meteobridge,2013-08-27 04:00:00,
2013-08-26 23:03:00,74.5,68.9,30.03,South,190,0.9,4.0,83,0.00,,,0.00,0.0,meteobridge,2013-08-27 04:03:00,
2013-08-26 23:05:00,74.5,68.9,30.03,ESE,120,0.0,4.0,83,0.00,,,0.00,0.0,meteobridge,2013-08-27 04:05:00,
2013-08-26 23:07:00,74.5,68.9,30.03,SW,221,0.0,6.0,83,0.00,,,0.00,0.0,meteobridge,2013-08-27 04:07:00,
2013-08-26 23:13:00,74.3,69.1,30.03,WSW,241,0.0,2.9,84,0.00,,,0.00,0.0,meteobridge,2013-08-27 04:13:00,
2013-08-26 23:17:00,74.1,68.9,30.04,South,189,0.0,2.0,84,0.00,,,0.00,0.0,meteobridge,2013-08-27 04:17:00,
2013-08-26 23:23:00,74.1,68.9,30.04,South,186,0.0,0.9,84,0.00,,,0.00,0.0,meteobridge,2013-08-27 04:23:00,
2013-08-26 23:29:00,74.1,68.9,30.04,SE,136,0.9,2.9,84,0.00,,,0.00,0.0,meteobridge,2013-08-27 04:29:00,
2013-08-26 23:35:00,73.9,68.7,30.04,SE,138,0.0,6.0,84,0.00,,,0.00,0.0,meteobridge,2013-08-27 04:35:00,
2013-08-26 23:42:00,73.9,69.1,30.04,ESE,121,0.0,6.0,85,0.00,,,0.00,0.0,meteobridge,2013-08-27 04:42:00,
2013-08-26 23:48:00,73.9,69.1,30.04,SE,144,0.9,4.0,85,0.00,,,0.00,0.0,meteobridge,2013-08-27 04:48:00,
2013-08-26 23:54:00,73.9,69.1,30.04,SE,134,0.9,0.9,85,0.00,,,0.00,0.0,meteobridge,2013-08-27 04:54:00,